sensor_id;sensor_type;location;lat;lon;timestamp;P1;durP1;ratioP1;P2;durP2;ratioP2
31061;SDS011;17724;53.546;9.974;2022-10-30T00:01:50;18.53;;;12.10;;
31061;SDS011;17724;53.546;9.974;2022-10-30T00:05:50;18.27;;;12.47;;
31061;SDS011;17724;53.546;9.974;2022-10-30T00:09:51;20.17;;;11.80;;
31061;SDS011;17724;53.546;9.974;2022-10-30T00:13:51;19.30;;;12.30;;
31061;SDS011;17724;53.546;9.974;2022-10-30T00:17:52;19.80;;;12.10;;
31061;SDS011;17724;53.546;9.974;2022-10-30T00:21:52;18.10;;;11.10;;
31061;SDS011;17724;53.546;9.974;2022-10-30T00:25:53;23.83;;;13.33;;
31061;SDS011;17724;53.546;9.974;2022-10-30T00:29:53;18.10;;;11.40;;
31061;SDS011;17724;53.546;9.974;2022-10-30T00:33:54;18.30;;;13.33;;
31061;SDS011;17724;53.546;9.974;2022-10-30T00:37:54;19.87;;;12.10;;
31061;SDS011;17724;53.546;9.974;2022-10-30T00:41:54;20.40;;;11.77;;
31061;SDS011;17724;53.546;9.974;2022-10-30T00:45:55;19.30;;;12.50;;
31061;SDS011;17724;53.546;9.974;2022-10-30T00:50:10;19.47;;;11.53;;
31061;SDS011;17724;53.546;9.974;2022-10-30T00:54:15;19.63;;;12.53;;
31061;SDS011;17724;53.546;9.974;2022-10-30T00:58:18;18.07;;;12.20;;
31061;SDS011;17724;53.546;9.974;2022-10-30T01:02:23;14.57;;;11.33;;
31061;SDS011;17724;53.546;9.974;2022-10-30T01:06:23;16.00;;;10.60;;
31061;SDS011;17724;53.546;9.974;2022-10-30T01:10:25;19.07;;;10.63;;
31061;SDS011;17724;53.546;9.974;2022-10-30T01:14:25;16.77;;;10.50;;
31061;SDS011;17724;53.546;9.974;2022-10-30T01:18:33;15.40;;;9.73;;
31061;SDS011;17724;53.546;9.974;2022-10-30T01:26:52;16.67;;;9.70;;
31061;SDS011;17724;53.546;9.974;2022-10-30T01:35:24;19.70;;;10.00;;
31061;SDS011;17724;53.546;9.974;2022-10-30T01:39:34;15.63;;;8.63;;
31061;SDS011;17724;53.546;9.974;2022-10-30T01:43:37;15.40;;;8.80;;
31061;SDS011;17724;53.546;9.974;2022-10-30T01:52:10;15.20;;;9.17;;
31061;SDS011;17724;53.546;9.974;2022-10-30T02:00:37;16.00;;;9.60;;
31061;SDS011;17724;53.546;9.974;2022-10-30T02:04:41;17.73;;;8.80;;
31061;SDS011;17724;53.546;9.974;2022-10-30T02:08:42;17.33;;;8.97;;
31061;SDS011;17724;53.546;9.974;2022-10-30T02:12:42;21.70;;;9.23;;
31061;SDS011;17724;53.546;9.974;2022-10-30T02:16:44;13.17;;;7.83;;
31061;SDS011;17724;53.546;9.974;2022-10-30T02:20:47;16.67;;;8.70;;
31061;SDS011;17724;53.546;9.974;2022-10-30T02:24:48;17.80;;;9.10;;
31061;SDS011;17724;53.546;9.974;2022-10-30T02:28:48;19.20;;;9.50;;
31061;SDS011;17724;53.546;9.974;2022-10-30T02:32:48;19.00;;;9.87;;
31061;SDS011;17724;53.546;9.974;2022-10-30T02:36:49;15.10;;;8.33;;
31061;SDS011;17724;53.546;9.974;2022-10-30T02:40:49;18.23;;;9.93;;
31061;SDS011;17724;53.546;9.974;2022-10-30T02:44:49;15.83;;;9.60;;
31061;SDS011;17724;53.546;9.974;2022-10-30T02:48:50;16.90;;;9.27;;
31061;SDS011;17724;53.546;9.974;2022-10-30T02:52:50;14.47;;;8.53;;
31061;SDS011;17724;53.546;9.974;2022-10-30T02:56:50;17.30;;;8.90;;
31061;SDS011;17724;53.546;9.974;2022-10-30T03:00:51;22.57;;;9.80;;
31061;SDS011;17724;53.546;9.974;2022-10-30T03:04:51;17.17;;;9.60;;
31061;SDS011;17724;53.546;9.974;2022-10-30T03:08:51;20.80;;;11.20;;
31061;SDS011;17724;53.546;9.974;2022-10-30T03:12:52;17.53;;;10.43;;
31061;SDS011;17724;53.546;9.974;2022-10-30T03:16:52;19.47;;;10.60;;
31061;SDS011;17724;53.546;9.974;2022-10-30T03:20:56;19.77;;;11.17;;
31061;SDS011;17724;53.546;9.974;2022-10-30T03:24:58;16.40;;;9.50;;
31061;SDS011;17724;53.546;9.974;2022-10-30T03:28:58;14.93;;;9.47;;
31061;SDS011;17724;53.546;9.974;2022-10-30T03:32:58;18.00;;;9.90;;
31061;SDS011;17724;53.546;9.974;2022-10-30T03:36:58;18.63;;;9.50;;
31061;SDS011;17724;53.546;9.974;2022-10-30T03:40:59;16.80;;;9.80;;
31061;SDS011;17724;53.546;9.974;2022-10-30T03:45:00;15.20;;;8.70;;
31061;SDS011;17724;53.546;9.974;2022-10-30T03:49:00;17.63;;;9.73;;
31061;SDS011;17724;53.546;9.974;2022-10-30T03:53:00;17.43;;;9.73;;
31061;SDS011;17724;53.546;9.974;2022-10-30T03:57:02;18.53;;;10.33;;
31061;SDS011;17724;53.546;9.974;2022-10-30T04:01:04;18.77;;;8.83;;
31061;SDS011;17724;53.546;9.974;2022-10-30T04:05:05;15.60;;;9.77;;
31061;SDS011;17724;53.546;9.974;2022-10-30T04:09:06;15.40;;;7.90;;
31061;SDS011;17724;53.546;9.974;2022-10-30T04:13:06;15.53;;;9.00;;
31061;SDS011;17724;53.546;9.974;2022-10-30T04:17:08;14.57;;;8.47;;
31061;SDS011;17724;53.546;9.974;2022-10-30T04:21:09;16.67;;;9.40;;
31061;SDS011;17724;53.546;9.974;2022-10-30T04:25:09;17.00;;;9.10;;
31061;SDS011;17724;53.546;9.974;2022-10-30T04:29:10;18.00;;;9.13;;
31061;SDS011;17724;53.546;9.974;2022-10-30T04:33:11;14.57;;;8.30;;
31061;SDS011;17724;53.546;9.974;2022-10-30T04:37:12;16.03;;;8.13;;
31061;SDS011;17724;53.546;9.974;2022-10-30T04:41:12;15.63;;;9.20;;
31061;SDS011;17724;53.546;9.974;2022-10-30T04:45:13;13.90;;;9.07;;
31061;SDS011;17724;53.546;9.974;2022-10-30T04:49:13;15.23;;;8.63;;
31061;SDS011;17724;53.546;9.974;2022-10-30T04:53:14;19.40;;;9.03;;
31061;SDS011;17724;53.546;9.974;2022-10-30T04:57:16;12.80;;;7.77;;
31061;SDS011;17724;53.546;9.974;2022-10-30T05:01:16;13.30;;;8.40;;
31061;SDS011;17724;53.546;9.974;2022-10-30T05:05:16;13.40;;;7.87;;
31061;SDS011;17724;53.546;9.974;2022-10-30T05:09:17;15.53;;;8.77;;
31061;SDS011;17724;53.546;9.974;2022-10-30T05:13:17;17.53;;;7.40;;
31061;SDS011;17724;53.546;9.974;2022-10-30T05:17:18;16.70;;;8.57;;
31061;SDS011;17724;53.546;9.974;2022-10-30T05:21:18;14.10;;;7.90;;
31061;SDS011;17724;53.546;9.974;2022-10-30T05:25:18;14.53;;;7.87;;
31061;SDS011;17724;53.546;9.974;2022-10-30T05:29:19;14.63;;;7.73;;
31061;SDS011;17724;53.546;9.974;2022-10-30T05:33:19;19.20;;;9.07;;
31061;SDS011;17724;53.546;9.974;2022-10-30T05:37:20;14.57;;;8.40;;
31061;SDS011;17724;53.546;9.974;2022-10-30T05:41:20;15.23;;;8.30;;
31061;SDS011;17724;53.546;9.974;2022-10-30T05:45:20;15.97;;;7.77;;
31061;SDS011;17724;53.546;9.974;2022-10-30T05:49:21;15.33;;;7.87;;
31061;SDS011;17724;53.546;9.974;2022-10-30T05:53:21;14.67;;;8.63;;
31061;SDS011;17724;53.546;9.974;2022-10-30T05:57:22;13.80;;;7.73;;
31061;SDS011;17724;53.546;9.974;2022-10-30T06:01:22;14.73;;;7.73;;
31061;SDS011;17724;53.546;9.974;2022-10-30T06:05:22;16.20;;;9.33;;
31061;SDS011;17724;53.546;9.974;2022-10-30T06:09:23;15.07;;;9.40;;
31061;SDS011;17724;53.546;9.974;2022-10-30T06:13:23;13.40;;;7.90;;
31061;SDS011;17724;53.546;9.974;2022-10-30T06:17:23;17.93;;;7.87;;
31061;SDS011;17724;53.546;9.974;2022-10-30T06:21:24;13.10;;;7.77;;
31061;SDS011;17724;53.546;9.974;2022-10-30T06:25:24;16.83;;;7.93;;
31061;SDS011;17724;53.546;9.974;2022-10-30T06:29:25;16.73;;;8.50;;
31061;SDS011;17724;53.546;9.974;2022-10-30T06:33:26;14.67;;;7.70;;
31061;SDS011;17724;53.546;9.974;2022-10-30T06:37:26;16.10;;;9.03;;
31061;SDS011;17724;53.546;9.974;2022-10-30T06:41:28;14.67;;;7.37;;
31061;SDS011;17724;53.546;9.974;2022-10-30T06:45:28;17.33;;;9.20;;
31061;SDS011;17724;53.546;9.974;2022-10-30T06:49:28;12.97;;;7.50;;
31061;SDS011;17724;53.546;9.974;2022-10-30T06:53:28;14.30;;;9.07;;
31061;SDS011;17724;53.546;9.974;2022-10-30T06:57:29;16.60;;;8.00;;
31061;SDS011;17724;53.546;9.974;2022-10-30T07:01:29;15.10;;;7.30;;
31061;SDS011;17724;53.546;9.974;2022-10-30T07:05:30;12.40;;;7.10;;
31061;SDS011;17724;53.546;9.974;2022-10-30T07:09:30;14.10;;;7.43;;
31061;SDS011;17724;53.546;9.974;2022-10-30T07:13:30;16.07;;;7.40;;
31061;SDS011;17724;53.546;9.974;2022-10-30T07:17:31;14.13;;;7.00;;
31061;SDS011;17724;53.546;9.974;2022-10-30T07:21:31;16.87;;;8.17;;
31061;SDS011;17724;53.546;9.974;2022-10-30T07:25:31;13.00;;;7.03;;
31061;SDS011;17724;53.546;9.974;2022-10-30T07:29:32;13.57;;;7.47;;
31061;SDS011;17724;53.546;9.974;2022-10-30T07:33:32;18.23;;;7.70;;
31061;SDS011;17724;53.546;9.974;2022-10-30T07:37:33;15.93;;;7.70;;
31061;SDS011;17724;53.546;9.974;2022-10-30T07:41:33;12.40;;;7.03;;
31061;SDS011;17724;53.546;9.974;2022-10-30T07:45:33;15.47;;;8.23;;
31061;SDS011;17724;53.546;9.974;2022-10-30T07:49:34;16.10;;;7.87;;
31061;SDS011;17724;53.546;9.974;2022-10-30T07:53:34;13.40;;;8.67;;
31061;SDS011;17724;53.546;9.974;2022-10-30T07:57:35;17.83;;;7.43;;
31061;SDS011;17724;53.546;9.974;2022-10-30T08:01:36;14.23;;;8.07;;
31061;SDS011;17724;53.546;9.974;2022-10-30T08:05:36;14.70;;;7.63;;
31061;SDS011;17724;53.546;9.974;2022-10-30T08:09:37;14.73;;;8.53;;
31061;SDS011;17724;53.546;9.974;2022-10-30T08:13:40;17.40;;;7.90;;
31061;SDS011;17724;53.546;9.974;2022-10-30T08:17:44;14.37;;;7.47;;
31061;SDS011;17724;53.546;9.974;2022-10-30T08:21:45;13.10;;;7.53;;
31061;SDS011;17724;53.546;9.974;2022-10-30T08:25:46;15.00;;;8.20;;
31061;SDS011;17724;53.546;9.974;2022-10-30T08:29:46;17.00;;;7.87;;
31061;SDS011;17724;53.546;9.974;2022-10-30T08:33:47;14.50;;;8.90;;
31061;SDS011;17724;53.546;9.974;2022-10-30T08:37:47;13.73;;;8.10;;
31061;SDS011;17724;53.546;9.974;2022-10-30T08:41:47;15.50;;;8.90;;
31061;SDS011;17724;53.546;9.974;2022-10-30T08:45:48;17.70;;;9.60;;
31061;SDS011;17724;53.546;9.974;2022-10-30T08:49:51;16.30;;;9.13;;
31061;SDS011;17724;53.546;9.974;2022-10-30T08:53:51;23.83;;;10.20;;
31061;SDS011;17724;53.546;9.974;2022-10-30T08:57:54;15.23;;;9.10;;
31061;SDS011;17724;53.546;9.974;2022-10-30T09:01:55;19.00;;;9.90;;
31061;SDS011;17724;53.546;9.974;2022-10-30T09:05:56;16.00;;;10.17;;
31061;SDS011;17724;53.546;9.974;2022-10-30T09:09:58;17.87;;;9.77;;
31061;SDS011;17724;53.546;9.974;2022-10-30T09:13:59;16.73;;;9.53;;
31061;SDS011;17724;53.546;9.974;2022-10-30T09:18:00;18.27;;;9.03;;
31061;SDS011;17724;53.546;9.974;2022-10-30T09:22:01;18.77;;;9.80;;
31061;SDS011;17724;53.546;9.974;2022-10-30T09:26:02;13.80;;;8.60;;
31061;SDS011;17724;53.546;9.974;2022-10-30T09:30:02;27.00;;;12.77;;
31061;SDS011;17724;53.546;9.974;2022-10-30T09:34:03;17.90;;;9.80;;
31061;SDS011;17724;53.546;9.974;2022-10-30T09:38:03;20.30;;;9.63;;
31061;SDS011;17724;53.546;9.974;2022-10-30T09:46:47;19.70;;;9.13;;
31061;SDS011;17724;53.546;9.974;2022-10-30T10:08:11;16.43;;;9.67;;
31061;SDS011;17724;53.546;9.974;2022-10-30T10:12:37;17.20;;;9.00;;
31061;SDS011;17724;53.546;9.974;2022-10-30T10:16:40;16.40;;;8.77;;
31061;SDS011;17724;53.546;9.974;2022-10-30T10:20:46;19.90;;;9.87;;
31061;SDS011;17724;53.546;9.974;2022-10-30T10:24:49;17.10;;;9.03;;
31061;SDS011;17724;53.546;9.974;2022-10-30T10:28:57;17.33;;;9.83;;
31061;SDS011;17724;53.546;9.974;2022-10-30T10:33:11;19.43;;;9.60;;
31061;SDS011;17724;53.546;9.974;2022-10-30T10:46:19;20.00;;;9.80;;
31061;SDS011;17724;53.546;9.974;2022-10-30T10:50:29;19.93;;;9.67;;
31061;SDS011;17724;53.546;9.974;2022-10-30T10:54:41;15.30;;;8.70;;
31061;SDS011;17724;53.546;9.974;2022-10-30T10:58:55;24.80;;;10.17;;
31061;SDS011;17724;53.546;9.974;2022-10-30T11:03:08;18.00;;;10.00;;
31061;SDS011;17724;53.546;9.974;2022-10-30T11:07:24;21.47;;;11.67;;
31061;SDS011;17724;53.546;9.974;2022-10-30T11:11:29;18.43;;;11.30;;
31061;SDS011;17724;53.546;9.974;2022-10-30T11:15:35;18.53;;;10.63;;
31061;SDS011;17724;53.546;9.974;2022-10-30T11:19:41;17.73;;;9.47;;
31061;SDS011;17724;53.546;9.974;2022-10-30T11:23:42;18.53;;;9.90;;
31061;SDS011;17724;53.546;9.974;2022-10-30T11:27:45;16.80;;;8.57;;
31061;SDS011;17724;53.546;9.974;2022-10-30T11:31:57;16.13;;;8.60;;
31061;SDS011;17724;53.546;9.974;2022-10-30T11:36:06;17.57;;;9.17;;
31061;SDS011;17724;53.546;9.974;2022-10-30T11:44:11;17.00;;;8.80;;
31061;SDS011;17724;53.546;9.974;2022-10-30T11:48:28;16.17;;;9.13;;
31061;SDS011;17724;53.546;9.974;2022-10-30T11:52:34;19.23;;;9.60;;
31061;SDS011;17724;53.546;9.974;2022-10-30T11:56:43;15.60;;;8.80;;
31061;SDS011;17724;53.546;9.974;2022-10-30T12:00:46;23.33;;;9.43;;
31061;SDS011;17724;53.546;9.974;2022-10-30T12:05:00;15.57;;;8.13;;
31061;SDS011;17724;53.546;9.974;2022-10-30T12:09:20;17.60;;;8.67;;
31061;SDS011;17724;53.546;9.974;2022-10-30T12:13:22;19.50;;;8.67;;
31061;SDS011;17724;53.546;9.974;2022-10-30T12:17:24;18.60;;;9.60;;
31061;SDS011;17724;53.546;9.974;2022-10-30T12:21:25;15.83;;;8.17;;
31061;SDS011;17724;53.546;9.974;2022-10-30T12:25:30;18.90;;;9.00;;
31061;SDS011;17724;53.546;9.974;2022-10-30T12:29:39;16.47;;;8.70;;
31061;SDS011;17724;53.546;9.974;2022-10-30T12:34:03;16.33;;;8.00;;
31061;SDS011;17724;53.546;9.974;2022-10-30T12:38:19;19.73;;;8.50;;
31061;SDS011;17724;53.546;9.974;2022-10-30T12:42:29;19.23;;;9.10;;
31061;SDS011;17724;53.546;9.974;2022-10-30T12:46:41;21.33;;;8.30;;
31061;SDS011;17724;53.546;9.974;2022-10-30T13:03:59;17.60;;;9.37;;
31061;SDS011;17724;53.546;9.974;2022-10-30T13:08:26;20.73;;;9.17;;
31061;SDS011;17724;53.546;9.974;2022-10-30T13:12:32;21.47;;;11.23;;
31061;SDS011;17724;53.546;9.974;2022-10-30T13:16:37;15.87;;;9.50;;
31061;SDS011;17724;53.546;9.974;2022-10-30T13:20:37;16.93;;;9.30;;
31061;SDS011;17724;53.546;9.974;2022-10-30T13:24:43;18.30;;;9.17;;
31061;SDS011;17724;53.546;9.974;2022-10-30T13:29:13;14.80;;;8.57;;
31061;SDS011;17724;53.546;9.974;2022-10-30T13:33:29;16.30;;;9.30;;
31061;SDS011;17724;53.546;9.974;2022-10-30T13:37:44;22.00;;;9.70;;
31061;SDS011;17724;53.546;9.974;2022-10-30T13:46:15;20.10;;;9.87;;
31061;SDS011;17724;53.546;9.974;2022-10-30T13:54:49;23.23;;;10.00;;
31061;SDS011;17724;53.546;9.974;2022-10-30T14:16:40;25.97;;;12.77;;
31061;SDS011;17724;53.546;9.974;2022-10-30T14:20:48;20.83;;;10.73;;
31061;SDS011;17724;53.546;9.974;2022-10-30T14:24:51;37.30;;;29.47;;
31061;SDS011;17724;53.546;9.974;2022-10-30T14:28:51;17.20;;;12.27;;
31061;SDS011;17724;53.546;9.974;2022-10-30T14:32:54;24.37;;;20.57;;
31061;SDS011;17724;53.546;9.974;2022-10-30T14:36:54;27.77;;;20.37;;
31061;SDS011;17724;53.546;9.974;2022-10-30T14:41:05;21.00;;;11.07;;
31061;SDS011;17724;53.546;9.974;2022-10-30T14:49:59;35.33;;;23.60;;
31061;SDS011;17724;53.546;9.974;2022-10-30T14:54:23;23.60;;;17.33;;
31061;SDS011;17724;53.546;9.974;2022-10-30T14:58:36;22.70;;;12.33;;
31061;SDS011;17724;53.546;9.974;2022-10-30T15:02:46;17.40;;;10.97;;
31061;SDS011;17724;53.546;9.974;2022-10-30T15:07:23;21.70;;;12.90;;
31061;SDS011;17724;53.546;9.974;2022-10-30T15:16:00;24.57;;;13.83;;
31061;SDS011;17724;53.546;9.974;2022-10-30T15:20:25;22.07;;;13.83;;
31061;SDS011;17724;53.546;9.974;2022-10-30T15:24:25;43.07;;;38.20;;
31061;SDS011;17724;53.546;9.974;2022-10-30T15:28:29;38.97;;;28.40;;
31061;SDS011;17724;53.546;9.974;2022-10-30T15:32:39;58.90;;;53.43;;
31061;SDS011;17724;53.546;9.974;2022-10-30T15:36:40;33.70;;;30.20;;
31061;SDS011;17724;53.546;9.974;2022-10-30T15:40:42;36.33;;;29.37;;
31061;SDS011;17724;53.546;9.974;2022-10-30T15:44:43;26.73;;;19.40;;
31061;SDS011;17724;53.546;9.974;2022-10-30T15:48:46;39.10;;;27.63;;
31061;SDS011;17724;53.546;9.974;2022-10-30T15:52:47;25.43;;;17.83;;
31061;SDS011;17724;53.546;9.974;2022-10-30T15:56:48;25.73;;;17.37;;
31061;SDS011;17724;53.546;9.974;2022-10-30T16:00:56;21.67;;;15.60;;
31061;SDS011;17724;53.546;9.974;2022-10-30T16:04:58;25.53;;;21.50;;
31061;SDS011;17724;53.546;9.974;2022-10-30T16:09:02;26.53;;;20.03;;
31061;SDS011;17724;53.546;9.974;2022-10-30T16:13:15;52.37;;;46.70;;
31061;SDS011;17724;53.546;9.974;2022-10-30T16:17:18;40.37;;;36.00;;
31061;SDS011;17724;53.546;9.974;2022-10-30T16:21:20;35.33;;;31.53;;
31061;SDS011;17724;53.546;9.974;2022-10-30T16:25:23;34.43;;;25.87;;
31061;SDS011;17724;53.546;9.974;2022-10-30T16:29:25;28.50;;;21.40;;
31061;SDS011;17724;53.546;9.974;2022-10-30T16:33:27;30.10;;;22.53;;
31061;SDS011;17724;53.546;9.974;2022-10-30T16:37:33;25.20;;;18.50;;
31061;SDS011;17724;53.546;9.974;2022-10-30T16:41:35;23.10;;;16.40;;
31061;SDS011;17724;53.546;9.974;2022-10-30T16:45:43;43.37;;;35.60;;
31061;SDS011;17724;53.546;9.974;2022-10-30T16:49:53;34.60;;;29.07;;
31061;SDS011;17724;53.546;9.974;2022-10-30T16:53:56;39.43;;;35.33;;
31061;SDS011;17724;53.546;9.974;2022-10-30T16:57:57;49.53;;;39.37;;
31061;SDS011;17724;53.546;9.974;2022-10-30T17:01:59;50.60;;;40.37;;
31061;SDS011;17724;53.546;9.974;2022-10-30T17:23:29;35.73;;;28.87;;
31061;SDS011;17724;53.546;9.974;2022-10-30T17:27:30;41.20;;;33.60;;
31061;SDS011;17724;53.546;9.974;2022-10-30T17:35:36;32.30;;;28.83;;
31061;SDS011;17724;53.546;9.974;2022-10-30T17:39:37;46.90;;;42.10;;
31061;SDS011;17724;53.546;9.974;2022-10-30T17:43:47;33.60;;;29.43;;
31061;SDS011;17724;53.546;9.974;2022-10-30T17:47:50;29.70;;;24.23;;
31061;SDS011;17724;53.546;9.974;2022-10-30T17:51:50;36.60;;;30.93;;
31061;SDS011;17724;53.546;9.974;2022-10-30T17:56:01;26.57;;;20.33;;
31061;SDS011;17724;53.546;9.974;2022-10-30T18:00:09;29.50;;;24.47;;
31061;SDS011;17724;53.546;9.974;2022-10-30T18:04:12;25.80;;;17.60;;
31061;SDS011;17724;53.546;9.974;2022-10-30T18:08:14;41.83;;;34.57;;
31061;SDS011;17724;53.546;9.974;2022-10-30T18:12:15;34.10;;;29.23;;
31061;SDS011;17724;53.546;9.974;2022-10-30T18:16:16;37.43;;;30.83;;
31061;SDS011;17724;53.546;9.974;2022-10-30T18:20:18;42.43;;;33.10;;
31061;SDS011;17724;53.546;9.974;2022-10-30T18:24:18;30.43;;;23.00;;
31061;SDS011;17724;53.546;9.974;2022-10-30T18:28:18;36.93;;;31.23;;
31061;SDS011;17724;53.546;9.974;2022-10-30T18:32:19;30.77;;;20.90;;
31061;SDS011;17724;53.546;9.974;2022-10-30T18:36:20;30.00;;;24.57;;
31061;SDS011;17724;53.546;9.974;2022-10-30T18:40:22;39.13;;;35.00;;
31061;SDS011;17724;53.546;9.974;2022-10-30T18:44:23;30.23;;;23.13;;
31061;SDS011;17724;53.546;9.974;2022-10-30T18:48:23;30.77;;;21.93;;
31061;SDS011;17724;53.546;9.974;2022-10-30T18:52:24;25.67;;;19.37;;
31061;SDS011;17724;53.546;9.974;2022-10-30T18:56:25;28.80;;;21.80;;
31061;SDS011;17724;53.546;9.974;2022-10-30T19:00:27;36.17;;;31.20;;
31061;SDS011;17724;53.546;9.974;2022-10-30T19:04:29;42.83;;;32.50;;
31061;SDS011;17724;53.546;9.974;2022-10-30T19:08:29;56.57;;;47.13;;
31061;SDS011;17724;53.546;9.974;2022-10-30T19:12:32;40.83;;;33.23;;
31061;SDS011;17724;53.546;9.974;2022-10-30T19:16:32;30.83;;;25.93;;
31061;SDS011;17724;53.546;9.974;2022-10-30T19:20:33;31.43;;;25.80;;
31061;SDS011;17724;53.546;9.974;2022-10-30T19:24:34;27.37;;;19.00;;
31061;SDS011;17724;53.546;9.974;2022-10-30T19:28:34;26.53;;;20.10;;
31061;SDS011;17724;53.546;9.974;2022-10-30T19:32:37;56.13;;;47.07;;
31061;SDS011;17724;53.546;9.974;2022-10-30T19:36:37;44.60;;;32.47;;
31061;SDS011;17724;53.546;9.974;2022-10-30T19:40:38;47.37;;;42.37;;
31061;SDS011;17724;53.546;9.974;2022-10-30T19:44:39;44.50;;;38.00;;
31061;SDS011;17724;53.546;9.974;2022-10-30T19:48:40;44.17;;;33.07;;
31061;SDS011;17724;53.546;9.974;2022-10-30T19:52:40;35.27;;;28.33;;
31061;SDS011;17724;53.546;9.974;2022-10-30T19:56:40;27.20;;;19.60;;
31061;SDS011;17724;53.546;9.974;2022-10-30T20:00:43;29.40;;;25.10;;
31061;SDS011;17724;53.546;9.974;2022-10-30T20:04:45;27.80;;;20.37;;
31061;SDS011;17724;53.546;9.974;2022-10-30T20:08:47;22.20;;;16.37;;
31061;SDS011;17724;53.546;9.974;2022-10-30T20:12:48;35.17;;;26.40;;
31061;SDS011;17724;53.546;9.974;2022-10-30T20:16:48;31.33;;;23.73;;
31061;SDS011;17724;53.546;9.974;2022-10-30T20:20:50;37.40;;;32.47;;
31061;SDS011;17724;53.546;9.974;2022-10-30T20:24:51;31.63;;;25.63;;
31061;SDS011;17724;53.546;9.974;2022-10-30T20:28:52;32.83;;;24.53;;
31061;SDS011;17724;53.546;9.974;2022-10-30T20:32:53;32.67;;;27.80;;
31061;SDS011;17724;53.546;9.974;2022-10-30T20:36:55;29.70;;;25.80;;
31061;SDS011;17724;53.546;9.974;2022-10-30T20:40:56;32.57;;;26.27;;
31061;SDS011;17724;53.546;9.974;2022-10-30T20:45:00;29.17;;;22.53;;
31061;SDS011;17724;53.546;9.974;2022-10-30T20:49:01;26.83;;;21.70;;
31061;SDS011;17724;53.546;9.974;2022-10-30T20:53:01;28.43;;;21.37;;
31061;SDS011;17724;53.546;9.974;2022-10-30T20:57:01;57.43;;;51.43;;
31061;SDS011;17724;53.546;9.974;2022-10-30T21:01:02;28.20;;;23.83;;
31061;SDS011;17724;53.546;9.974;2022-10-30T21:05:03;26.97;;;18.10;;
31061;SDS011;17724;53.546;9.974;2022-10-30T21:09:03;23.97;;;18.10;;
31061;SDS011;17724;53.546;9.974;2022-10-30T21:13:04;24.17;;;16.17;;
31061;SDS011;17724;53.546;9.974;2022-10-30T21:17:05;26.23;;;17.90;;
31061;SDS011;17724;53.546;9.974;2022-10-30T21:21:06;28.93;;;20.20;;
31061;SDS011;17724;53.546;9.974;2022-10-30T21:25:07;24.63;;;16.90;;
31061;SDS011;17724;53.546;9.974;2022-10-30T21:29:08;25.83;;;18.47;;
31061;SDS011;17724;53.546;9.974;2022-10-30T21:33:08;22.67;;;17.13;;
31061;SDS011;17724;53.546;9.974;2022-10-30T21:37:09;25.07;;;17.30;;
31061;SDS011;17724;53.546;9.974;2022-10-30T21:41:10;26.57;;;20.77;;
31061;SDS011;17724;53.546;9.974;2022-10-30T21:45:11;42.40;;;37.90;;
31061;SDS011;17724;53.546;9.974;2022-10-30T21:49:15;26.00;;;19.30;;
31061;SDS011;17724;53.546;9.974;2022-10-30T21:53:17;23.93;;;16.83;;
31061;SDS011;17724;53.546;9.974;2022-10-30T21:57:17;22.30;;;16.90;;
31061;SDS011;17724;53.546;9.974;2022-10-30T22:01:18;26.40;;;20.20;;
31061;SDS011;17724;53.546;9.974;2022-10-30T22:05:27;26.70;;;20.37;;
31061;SDS011;17724;53.546;9.974;2022-10-30T22:09:27;23.27;;;19.33;;
31061;SDS011;17724;53.546;9.974;2022-10-30T22:13:28;23.50;;;17.90;;
31061;SDS011;17724;53.546;9.974;2022-10-30T22:17:28;24.13;;;17.40;;
31061;SDS011;17724;53.546;9.974;2022-10-30T22:21:29;23.33;;;15.77;;
31061;SDS011;17724;53.546;9.974;2022-10-30T22:25:29;23.10;;;18.60;;
31061;SDS011;17724;53.546;9.974;2022-10-30T22:29:30;22.93;;;16.90;;
31061;SDS011;17724;53.546;9.974;2022-10-30T22:33:31;24.00;;;17.20;;
31061;SDS011;17724;53.546;9.974;2022-10-30T22:37:31;24.77;;;17.07;;
31061;SDS011;17724;53.546;9.974;2022-10-30T22:41:32;24.27;;;17.47;;
31061;SDS011;17724;53.546;9.974;2022-10-30T22:45:33;24.03;;;18.60;;
31061;SDS011;17724;53.546;9.974;2022-10-30T22:49:33;21.70;;;15.87;;
31061;SDS011;17724;53.546;9.974;2022-10-30T22:53:34;20.60;;;15.40;;
31061;SDS011;17724;53.546;9.974;2022-10-30T22:57:36;20.60;;;15.23;;
31061;SDS011;17724;53.546;9.974;2022-10-30T23:01:37;22.10;;;15.83;;
31061;SDS011;17724;53.546;9.974;2022-10-30T23:05:38;17.63;;;14.90;;
31061;SDS011;17724;53.546;9.974;2022-10-30T23:09:38;20.53;;;13.40;;
31061;SDS011;17724;53.546;9.974;2022-10-30T23:13:39;20.13;;;14.60;;
31061;SDS011;17724;53.546;9.974;2022-10-30T23:17:40;18.77;;;14.00;;
31061;SDS011;17724;53.546;9.974;2022-10-30T23:21:42;20.17;;;14.63;;
31061;SDS011;17724;53.546;9.974;2022-10-30T23:25:42;20.97;;;14.40;;
31061;SDS011;17724;53.546;9.974;2022-10-30T23:29:43;18.67;;;15.43;;
31061;SDS011;17724;53.546;9.974;2022-10-30T23:33:47;22.27;;;17.93;;
31061;SDS011;17724;53.546;9.974;2022-10-30T23:37:48;19.53;;;16.23;;
31061;SDS011;17724;53.546;9.974;2022-10-30T23:41:48;21.70;;;16.07;;
31061;SDS011;17724;53.546;9.974;2022-10-30T23:45:49;21.93;;;15.80;;
31061;SDS011;17724;53.546;9.974;2022-10-30T23:49:49;20.10;;;16.80;;
31061;SDS011;17724;53.546;9.974;2022-10-30T23:53:49;19.90;;;16.37;;
31061;SDS011;17724;53.546;9.974;2022-10-30T23:57:50;25.30;;;16.17;;
